CheckWX is a tool to help pilots better visualize weather data.  It is not intended as a substitute for an official pre-flight weather briefing.

19:57:30 UTC

AGGH TAF
Honiara International Airport
Honiara, Solomon Islands
TAF AGGH 251725Z 2518/2618 07015KT 9999 SCT018 T 23 26 31 32 Q 1009 1011 1011 1009

Jun-25@
18:00 UTC

Jun-25 @ 18:00 UTC

Jun-26@
18:00 UTC

Jun-26 @ 18:00 UTC

TAF AGGH 251725Z 2518/2618 07015KT 9999 SCT018 T 23 26 31 32 Q 1009 1011 1011 1009
Wind
  • 070° at 15 KTS
Cloud Levels
  • Scattered at 1,800' AGL